createdAt,value
2018-09-27T00:01:07.828Z,8.00
2018-09-27T00:03:38.325Z,7.80
2018-09-27T00:06:08.409Z,7.60
2018-09-27T00:08:38.921Z,7.80
2018-09-27T00:11:08.139Z,7.80
2018-09-27T00:13:38.924Z,7.70
2018-09-27T00:16:08.501Z,7.60
2018-09-27T00:18:37.894Z,7.40
2018-09-27T00:21:06.978Z,7.50
2018-09-27T00:23:37.833Z,7.30
2018-09-27T00:26:08.424Z,7.70
2018-09-27T00:28:39.129Z,7.50
2018-09-27T00:31:08.974Z,7.70
2018-09-27T00:33:38.150Z,7.80
2018-09-27T00:36:07.233Z,7.60
2018-09-27T00:38:36.266Z,7.30
2018-09-27T00:41:07.160Z,7.40
2018-09-27T00:43:38.501Z,7.70
2018-09-27T00:46:07.768Z,7.40
2018-09-27T00:48:36.861Z,7.30
2018-09-27T00:51:05.945Z,7.40
2018-09-27T00:53:35.119Z,7.50
2018-09-27T00:56:04.196Z,7.60
2018-09-27T00:58:33.229Z,7.30
2018-09-27T01:01:02.309Z,7.00
2018-09-27T01:03:31.350Z,7.00
2018-09-27T01:06:00.426Z,7.00
2018-09-27T01:08:29.494Z,7.40
2018-09-27T01:10:58.569Z,7.60
2018-09-27T01:13:28.125Z,7.70
2018-09-27T01:15:57.853Z,7.40
2018-09-27T01:18:26.914Z,7.10
2018-09-27T01:20:56.010Z,7.30
2018-09-27T01:23:25.078Z,7.40
2018-09-27T01:25:54.150Z,7.00
2018-09-27T01:28:23.217Z,6.80
2018-09-27T01:30:52.297Z,6.90
2018-09-27T01:33:21.390Z,7.10
2018-09-27T01:35:50.491Z,7.10
2018-09-27T01:38:19.561Z,7.10
2018-09-27T01:40:48.674Z,6.90
2018-09-27T01:43:17.800Z,6.70
2018-09-27T01:45:46.870Z,7.00
2018-09-27T01:48:16.058Z,7.10
2018-09-27T01:50:45.151Z,7.20
2018-09-27T01:53:14.202Z,6.80
2018-09-27T01:55:43.306Z,6.70
2018-09-27T01:58:12.378Z,6.70
2018-09-27T02:00:41.490Z,6.90
2018-09-27T02:03:10.531Z,6.90
2018-09-27T02:05:39.606Z,6.90
2018-09-27T02:08:08.669Z,6.70
2018-09-27T02:10:37.745Z,6.50
2018-09-27T02:13:07.058Z,6.60
2018-09-27T02:15:36.130Z,6.90
2018-09-27T02:18:05.225Z,7.00
2018-09-27T02:20:34.294Z,6.60
2018-09-27T02:23:03.440Z,6.60
2018-09-27T02:25:32.502Z,6.70
2018-09-27T02:28:01.603Z,6.90
2018-09-27T02:30:30.683Z,6.70
2018-09-27T02:32:59.738Z,6.50
2018-09-27T02:35:28.790Z,6.70
2018-09-27T02:37:57.857Z,6.80
2018-09-27T02:40:27.013Z,6.60
2018-09-27T02:42:56.176Z,6.50
2018-09-27T02:45:25.283Z,6.40
2018-09-27T02:47:54.418Z,6.50
2018-09-27T02:50:23.526Z,6.30
2018-09-27T02:52:52.869Z,6.40
2018-09-27T02:55:21.985Z,6.60
2018-09-27T02:57:51.150Z,6.90
2018-09-27T03:00:20.278Z,6.80
2018-09-27T03:02:49.534Z,6.70
2018-09-27T03:05:18.674Z,6.30
2018-09-27T03:07:47.819Z,6.20
2018-09-27T03:10:16.929Z,6.10
2018-09-27T03:12:46.058Z,6.40
2018-09-27T03:15:15.169Z,6.40
2018-09-27T03:17:44.323Z,6.50
2018-09-27T03:20:13.454Z,6.40
2018-09-27T03:22:42.578Z,6.50
2018-09-27T03:25:11.690Z,6.60
2018-09-27T03:27:40.830Z,6.60
2018-09-27T03:30:10.065Z,6.60
2018-09-27T03:35:13.522Z,6.20
2018-09-27T03:37:42.645Z,6.10
2018-09-27T03:40:11.895Z,6.10
2018-09-27T03:42:41.116Z,6.20
2018-09-27T03:45:10.246Z,6.10
2018-09-27T03:47:39.378Z,6.00
2018-09-27T03:50:08.542Z,6.10
2018-09-27T03:52:38.029Z,6.30
2018-09-27T03:55:07.193Z,6.10
2018-09-27T03:57:36.306Z,6.00
2018-09-27T04:00:06.834Z,5.90
2018-09-27T04:02:35.944Z,5.70
2018-09-27T04:05:06.178Z,5.60
2018-09-27T04:07:35.311Z,5.80
2018-09-27T04:10:04.603Z,6.00
2018-09-27T04:12:33.833Z,5.80
2018-09-27T04:15:03.306Z,5.70
2018-09-27T04:17:32.374Z,5.60
2018-09-27T04:20:01.455Z,5.80
2018-09-27T04:22:30.700Z,6.10
2018-09-27T04:24:59.783Z,6.00
2018-09-27T04:27:28.850Z,6.10
2018-09-27T04:29:57.945Z,6.10
2018-09-27T04:32:27.007Z,5.90
2018-09-27T04:34:56.102Z,5.60
2018-09-27T04:37:25.185Z,5.80
2018-09-27T04:39:54.362Z,5.90
2018-09-27T04:42:23.377Z,6.10
2018-09-27T04:44:52.459Z,6.10
2018-09-27T04:47:21.815Z,6.10
2018-09-27T04:49:50.894Z,5.90
2018-09-27T04:52:20.069Z,5.90
2018-09-27T04:54:49.236Z,5.80
2018-09-27T04:57:18.553Z,5.70
2018-09-27T04:59:47.687Z,5.50
2018-09-27T05:02:17.097Z,5.70
2018-09-27T05:04:46.270Z,5.80
2018-09-27T05:07:15.390Z,5.80
2018-09-27T05:09:44.657Z,5.80
2018-09-27T05:12:13.661Z,5.50
2018-09-27T05:14:42.821Z,5.40
2018-09-27T05:17:11.937Z,5.50
2018-09-27T05:19:41.098Z,5.80
2018-09-27T05:22:10.229Z,5.70
2018-09-27T05:24:39.332Z,5.90
2018-09-27T05:27:09.167Z,5.90
2018-09-27T05:29:38.304Z,5.80
2018-09-27T05:32:08.076Z,5.90
2018-09-27T05:34:37.203Z,5.90
2018-09-27T05:37:06.366Z,5.80
2018-09-27T05:39:35.504Z,5.80
2018-09-27T05:42:04.758Z,5.80
2018-09-27T05:44:33.913Z,5.90
2018-09-27T05:47:03.142Z,5.80
2018-09-27T05:49:32.308Z,5.70
2018-09-27T05:52:01.553Z,5.60
2018-09-27T05:54:30.733Z,5.50
2018-09-27T05:56:59.919Z,5.70
2018-09-27T05:59:29.098Z,5.70
2018-09-27T06:01:58.341Z,5.70
2018-09-27T06:04:27.483Z,5.70
2018-09-27T06:06:56.693Z,5.90
2018-09-27T06:09:25.871Z,6.00
2018-09-27T06:11:55.402Z,6.10
2018-09-27T06:14:24.566Z,6.10
2018-09-27T06:16:53.766Z,6.40
2018-09-27T06:19:23.031Z,6.60
2018-09-27T06:21:52.313Z,6.90
2018-09-27T06:24:21.479Z,6.90
2018-09-27T06:26:50.738Z,7.10
2018-09-27T06:29:19.896Z,7.30
2018-09-27T06:31:49.093Z,7.20
2018-09-27T06:34:19.005Z,7.40
2018-09-27T06:36:48.194Z,7.50
2018-09-27T06:39:17.414Z,7.60
2018-09-27T06:41:46.617Z,7.80
2018-09-27T06:44:15.810Z,8.00
2018-09-27T06:46:45.019Z,8.00
2018-09-27T06:49:14.186Z,8.10
2018-09-27T06:51:44.931Z,8.50
2018-09-27T06:54:14.163Z,8.70
2018-09-27T06:56:43.539Z,8.80
2018-09-27T06:59:12.814Z,8.80
2018-09-27T07:01:42.054Z,8.70
2018-09-27T07:04:11.233Z,8.60
2018-09-27T07:06:40.446Z,8.80
2018-09-27T07:09:11.816Z,8.70
2018-09-27T07:11:41.114Z,9.00
2018-09-27T07:14:11.205Z,9.40
2018-09-27T07:16:40.398Z,9.70
2018-09-27T07:19:10.133Z,9.70
2018-09-27T07:21:39.494Z,9.30
2018-09-27T07:24:09.041Z,9.30
2018-09-27T07:26:38.222Z,9.30
2018-09-27T07:29:08.050Z,9.30
2018-09-27T07:31:37.238Z,9.40
2018-09-27T07:34:06.504Z,9.70
2018-09-27T07:36:35.754Z,9.90
2018-09-27T07:39:08.071Z,10.10
2018-09-27T07:41:38.094Z,10.00
2018-09-27T07:44:08.163Z,10.20
2018-09-27T07:46:37.381Z,10.40
2018-09-27T07:49:07.473Z,10.60
2018-09-27T07:51:37.109Z,10.80
2018-09-27T07:54:06.645Z,10.90
2018-09-27T07:56:35.844Z,11.00
2018-09-27T07:59:05.064Z,11.00
2018-09-27T08:01:34.241Z,11.00
2018-09-27T08:04:03.497Z,11.10
2018-09-27T08:06:32.642Z,11.30
2018-09-27T08:09:01.902Z,11.40
2018-09-27T08:11:31.503Z,11.40
2018-09-27T08:14:00.690Z,11.50
2018-09-27T08:16:29.881Z,11.60
2018-09-27T08:18:59.106Z,11.60
2018-09-27T08:21:28.582Z,11.70
2018-09-27T08:23:57.860Z,11.90
2018-09-27T08:26:27.037Z,12.00
2018-09-27T08:28:56.244Z,12.00
2018-09-27T08:31:27.678Z,12.00
2018-09-27T08:33:56.882Z,12.20
2018-09-27T08:36:26.230Z,12.30
2018-09-27T08:38:56.444Z,12.60
2018-09-27T08:41:25.745Z,12.70
2018-09-27T08:43:54.925Z,12.80
2018-09-27T08:46:24.041Z,13.00
2018-09-27T08:48:53.174Z,12.60
2018-09-27T08:51:22.684Z,12.80
2018-09-27T08:53:51.829Z,12.80
2018-09-27T08:56:22.034Z,13.40
2018-09-27T08:58:51.534Z,14.10
2018-09-27T09:01:20.655Z,14.60
2018-09-27T09:03:49.866Z,15.20
2018-09-27T09:06:19.391Z,15.80
2018-09-27T09:08:48.539Z,16.30
2018-09-27T09:11:17.791Z,16.70
2018-09-27T09:13:46.935Z,16.50
2018-09-27T09:16:16.072Z,16.20
2018-09-27T09:18:45.223Z,17.10
2018-09-27T09:21:14.352Z,17.30
2018-09-27T09:23:43.507Z,17.50
2018-09-27T09:26:12.777Z,18.10
2018-09-27T09:28:41.964Z,18.10
2018-09-27T09:31:11.083Z,18.80
2018-09-27T09:33:40.252Z,19.00
2018-09-27T09:36:09.406Z,19.40
2018-09-27T09:38:38.565Z,20.10
2018-09-27T09:41:07.877Z,19.70
2018-09-27T09:43:37.237Z,19.30
2018-09-27T09:46:06.527Z,19.80
2018-09-27T09:48:35.798Z,20.20
2018-09-27T09:51:05.028Z,20.50
2018-09-27T09:53:34.210Z,20.80
2018-09-27T09:56:04.169Z,21.00
2018-09-27T09:58:33.848Z,21.00
2018-09-27T10:01:03.039Z,20.90
2018-09-27T10:03:32.210Z,21.20
2018-09-27T10:06:01.437Z,21.10
2018-09-27T10:08:30.613Z,21.20
2018-09-27T10:10:59.833Z,21.70
2018-09-27T10:13:29.081Z,21.90
2018-09-27T10:15:58.302Z,21.90
2018-09-27T10:18:27.567Z,22.20
2018-09-27T10:20:57.365Z,22.30
2018-09-27T10:23:27.240Z,21.60
2018-09-27T10:25:57.257Z,21.90
2018-09-27T10:28:27.504Z,22.40
2018-09-27T10:30:58.449Z,22.30
2018-09-27T10:33:28.804Z,22.40
2018-09-27T10:36:00.893Z,22.80
2018-09-27T10:38:30.924Z,22.90
2018-09-27T10:41:00.794Z,22.70
2018-09-27T10:43:30.050Z,22.70
2018-09-27T10:46:00.257Z,23.10
2018-09-27T10:48:29.454Z,23.70
2018-09-27T10:50:58.610Z,24.10
2018-09-27T10:53:27.754Z,23.90
2018-09-27T10:55:56.903Z,23.80
2018-09-27T10:58:26.029Z,24.20
2018-09-27T11:00:55.283Z,24.20
2018-09-27T11:03:24.428Z,24.50
2018-09-27T11:05:53.568Z,24.80
2018-09-27T11:08:22.686Z,24.40
2018-09-27T11:10:51.896Z,24.30
2018-09-27T11:13:21.010Z,24.50
2018-09-27T11:15:50.298Z,24.80
2018-09-27T11:18:19.426Z,25.00
2018-09-27T11:20:48.950Z,25.20
2018-09-27T11:23:18.069Z,24.90
2018-09-27T11:25:47.182Z,25.10
2018-09-27T11:28:16.329Z,25.50
2018-09-27T11:30:45.506Z,25.70
2018-09-27T11:33:14.656Z,25.50
2018-09-27T11:35:43.793Z,25.50
2018-09-27T11:38:12.937Z,24.90
2018-09-27T11:40:42.177Z,25.40
2018-09-27T11:43:11.267Z,25.70
2018-09-27T11:45:40.342Z,26.10
2018-09-27T11:48:09.426Z,25.70
2018-09-27T11:50:38.567Z,25.80
2018-09-27T11:53:07.662Z,25.80
2018-09-27T11:55:36.738Z,26.10
2018-09-27T11:58:05.918Z,26.40
2018-09-27T12:00:35.070Z,26.30
2018-09-27T12:03:04.118Z,26.10
2018-09-27T12:05:33.173Z,26.70
2018-09-27T12:08:02.259Z,26.80
2018-09-27T12:10:31.363Z,26.60
2018-09-27T12:13:01.450Z,26.30
2018-09-27T12:15:30.678Z,26.10
2018-09-27T12:17:59.762Z,26.50
2018-09-27T12:20:29.046Z,27.00
2018-09-27T12:22:58.177Z,27.20
2018-09-27T12:25:27.227Z,27.50
2018-09-27T12:27:56.306Z,27.80
2018-09-27T12:30:25.403Z,27.30
2018-09-27T12:32:54.478Z,27.90
2018-09-27T12:35:23.543Z,27.80
2018-09-27T12:37:52.813Z,27.70
2018-09-27T12:40:21.946Z,27.00
2018-09-27T12:42:51.127Z,27.90
2018-09-27T12:45:20.259Z,27.20
2018-09-27T12:47:49.418Z,27.70
2018-09-27T12:50:18.545Z,27.80
2018-09-27T12:52:47.704Z,27.70
2018-09-27T12:55:16.804Z,27.00
2018-09-27T12:57:45.931Z,27.50
2018-09-27T13:00:15.158Z,26.90
2018-09-27T13:02:44.498Z,26.40
2018-09-27T13:05:13.454Z,26.40
2018-09-27T13:07:42.578Z,26.90
2018-09-27T13:10:11.857Z,26.90
2018-09-27T13:12:41.023Z,27.10
2018-09-27T13:15:10.125Z,26.40
2018-09-27T13:17:39.336Z,27.00
2018-09-27T13:20:08.688Z,27.40
2018-09-27T13:22:37.790Z,27.20
2018-09-27T13:25:07.037Z,26.30
2018-09-27T13:27:36.226Z,25.20
2018-09-27T13:30:05.469Z,26.40
2018-09-27T13:32:34.721Z,26.60
2018-09-27T13:35:03.885Z,26.60
2018-09-27T13:37:33.000Z,27.00
2018-09-27T13:40:02.200Z,26.30
2018-09-27T13:42:31.510Z,26.40
2018-09-27T13:45:00.725Z,26.60
2018-09-27T13:47:29.791Z,26.60
2018-09-27T13:49:58.922Z,26.20
2018-09-27T13:52:28.067Z,26.10
2018-09-27T13:54:57.207Z,25.70
2018-09-27T13:57:26.488Z,25.70
2018-09-27T13:59:55.538Z,25.20
2018-09-27T14:02:24.654Z,25.20
2018-09-27T14:04:53.809Z,25.90
2018-09-27T14:07:22.926Z,25.40
2018-09-27T14:09:52.054Z,25.30
2018-09-27T14:12:21.261Z,25.80
2018-09-27T14:14:50.462Z,26.00
2018-09-27T14:17:19.590Z,25.80
2018-09-27T14:19:48.884Z,26.00
2018-09-27T14:22:17.985Z,26.10
2018-09-27T14:24:47.142Z,26.20
2018-09-27T14:27:16.262Z,25.80
2018-09-27T14:29:45.404Z,25.60
2018-09-27T14:32:14.587Z,25.80
2018-09-27T14:34:43.872Z,25.70
2018-09-27T14:37:13.159Z,25.70
2018-09-27T14:39:42.377Z,25.70
2018-09-27T14:42:11.985Z,25.90
2018-09-27T14:44:41.467Z,25.70
2018-09-27T14:47:11.067Z,25.60
2018-09-27T14:49:40.499Z,25.50
2018-09-27T14:52:09.810Z,25.60
2018-09-27T14:54:38.986Z,25.70
2018-09-27T14:57:08.113Z,25.50
2018-09-27T14:59:37.402Z,24.90
2018-09-27T15:02:06.676Z,24.70
2018-09-27T15:04:35.869Z,25.00
2018-09-27T15:07:04.974Z,24.80
2018-09-27T15:09:34.200Z,24.80
2018-09-27T15:12:03.748Z,24.70
2018-09-27T15:14:32.917Z,24.10
2018-09-27T15:17:02.025Z,24.10
2018-09-27T15:19:31.178Z,24.40
2018-09-27T15:22:00.611Z,24.40
2018-09-27T15:24:29.733Z,24.20
2018-09-27T15:27:00.014Z,24.20
2018-09-27T15:29:29.142Z,24.60
2018-09-27T15:31:58.978Z,24.60
2018-09-27T15:34:28.086Z,24.60
2018-09-27T15:36:57.232Z,24.60
2018-09-27T15:39:27.697Z,24.40
2018-09-27T15:41:56.874Z,24.50
2018-09-27T15:44:26.078Z,24.20
2018-09-27T15:46:55.210Z,24.00
2018-09-27T15:49:24.470Z,24.00
2018-09-27T15:51:53.598Z,23.90
2018-09-27T15:54:22.710Z,23.20
2018-09-27T15:56:51.839Z,23.20
2018-09-27T15:59:35.382Z,23.20
2018-09-27T16:02:04.719Z,22.90
2018-09-27T16:04:33.850Z,22.50
2018-09-27T16:07:03.005Z,22.30
2018-09-27T16:09:32.122Z,22.40
2018-09-27T16:12:01.274Z,22.20
2018-09-27T16:14:30.394Z,22.10
2018-09-27T16:16:59.523Z,21.70
2018-09-27T16:19:28.646Z,21.60
2018-09-27T16:21:57.848Z,21.40
2018-09-27T16:24:26.918Z,21.30
2018-09-27T16:26:56.064Z,21.10
2018-09-27T16:29:25.327Z,21.00
2018-09-27T16:31:54.466Z,20.80
2018-09-27T16:34:23.585Z,20.60
2018-09-27T16:36:52.747Z,20.30
2018-09-27T16:39:23.846Z,20.20
2018-09-27T16:41:53.066Z,20.00
2018-09-27T16:44:22.207Z,19.80
2018-09-27T16:46:51.334Z,19.70
2018-09-27T16:49:20.437Z,19.20
2018-09-27T16:51:49.602Z,19.00
2018-09-27T16:54:18.761Z,19.10
2018-09-27T16:56:47.930Z,19.10
2018-09-27T16:59:17.107Z,19.00
2018-09-27T17:01:46.277Z,18.80
2018-09-27T17:04:15.383Z,18.60
2018-09-27T17:06:44.550Z,18.50
2018-09-27T17:09:13.759Z,18.30
2018-09-27T17:11:42.947Z,18.00
2018-09-27T17:14:12.082Z,17.30
2018-09-27T17:16:41.256Z,16.80
2018-09-27T17:19:10.410Z,16.80
2018-09-27T17:21:39.586Z,17.00
2018-09-27T17:24:09.040Z,16.60
2018-09-27T17:26:38.567Z,16.00
2018-09-27T17:29:07.717Z,16.10
2018-09-27T17:31:36.849Z,16.20
2018-09-27T17:34:06.048Z,15.50
2018-09-27T17:36:35.154Z,15.20
2018-09-27T17:39:05.826Z,15.60
2018-09-27T17:41:34.907Z,15.40
2018-09-27T17:44:04.004Z,14.90
2018-09-27T17:46:33.089Z,14.80
2018-09-27T17:49:02.718Z,15.20
2018-09-27T17:51:31.791Z,15.30
2018-09-27T17:54:00.983Z,15.10
2018-09-27T17:56:30.045Z,15.10
2018-09-27T17:58:59.901Z,15.00
2018-09-27T18:01:29.297Z,15.00
2018-09-27T18:03:58.394Z,15.10
2018-09-27T18:06:28.057Z,15.20
2018-09-27T18:08:57.144Z,15.20
2018-09-27T18:11:26.279Z,14.80
2018-09-27T18:13:56.188Z,14.80
2018-09-27T18:16:25.854Z,14.20
2018-09-27T18:18:54.991Z,14.20
2018-09-27T18:21:24.069Z,14.40
2018-09-27T18:23:53.174Z,14.50
2018-09-27T18:26:22.314Z,14.50
2018-09-27T18:28:51.405Z,14.10
2018-09-27T18:31:20.534Z,14.20
2018-09-27T18:33:49.603Z,14.10
2018-09-27T18:36:19.069Z,14.00
2018-09-27T18:38:48.174Z,13.70
2018-09-27T18:41:17.330Z,13.60
2018-09-27T18:43:46.473Z,13.70
2018-09-27T18:46:15.595Z,13.90
2018-09-27T18:48:44.955Z,13.90
2018-09-27T18:51:14.177Z,13.70
2018-09-27T18:53:43.318Z,13.70
2018-09-27T18:56:13.572Z,13.50
2018-09-27T18:58:42.731Z,13.60
2018-09-27T19:01:11.871Z,13.40
2018-09-27T19:03:41.504Z,13.50
2018-09-27T19:06:11.855Z,12.90
2018-09-27T19:08:41.011Z,12.60
2018-09-27T19:11:10.154Z,12.60
2018-09-27T19:13:39.354Z,12.70
2018-09-27T19:16:08.738Z,12.90
2018-09-27T19:18:38.654Z,12.90
2018-09-27T19:21:07.851Z,13.10
2018-09-27T19:23:36.977Z,12.70
2018-09-27T19:26:06.154Z,12.50
2018-09-27T19:28:35.326Z,12.30
2018-09-27T19:31:04.477Z,12.20
2018-09-27T19:33:33.610Z,12.20
2018-09-27T19:36:03.629Z,12.10
2018-09-27T19:38:32.737Z,12.40
2018-09-27T19:41:01.878Z,12.50
2018-09-27T19:43:30.950Z,11.80
2018-09-27T19:46:00.726Z,11.90
2018-09-27T19:48:29.924Z,11.90
2018-09-27T19:51:00.811Z,12.00
2018-09-27T19:53:30.790Z,12.30
2018-09-27T19:56:00.116Z,12.30
2018-09-27T19:58:29.398Z,12.00
2018-09-27T20:00:58.527Z,11.50
2018-09-27T20:03:27.652Z,11.50
2018-09-27T20:05:57.003Z,11.40
2018-09-27T20:08:26.898Z,11.30
2018-09-27T20:10:56.048Z,11.60
2018-09-27T20:13:25.153Z,11.70
2018-09-27T20:15:54.627Z,11.70
2018-09-27T20:18:24.648Z,11.70
2018-09-27T20:20:53.761Z,11.60
2018-09-27T20:23:22.959Z,11.50
2018-09-27T20:25:52.025Z,11.70
2018-09-27T20:28:21.232Z,11.80
2018-09-27T20:30:50.650Z,11.60
2018-09-27T20:33:19.885Z,11.20
2018-09-27T20:35:48.989Z,11.40
2018-09-27T20:38:18.223Z,11.60
2018-09-27T20:40:47.670Z,11.80
2018-09-27T20:43:16.950Z,11.70
2018-09-27T20:45:46.038Z,11.70
2018-09-27T20:48:15.750Z,11.60
2018-09-27T20:50:44.906Z,11.70
2018-09-27T20:53:14.342Z,11.60
2018-09-27T20:55:43.581Z,11.30
2018-09-27T20:58:12.742Z,11.20
2018-09-27T21:00:42.930Z,11.30
2018-09-27T21:03:12.978Z,10.90
2018-09-27T21:05:42.930Z,10.70
2018-09-27T21:08:12.878Z,11.10
2018-09-27T21:10:43.623Z,11.40
2018-09-27T21:13:13.598Z,11.30
2018-09-27T21:15:42.755Z,11.10
2018-09-27T21:18:12.263Z,11.10
2018-09-27T21:20:41.447Z,11.00
2018-09-27T21:23:10.542Z,10.90
2018-09-27T21:25:39.670Z,11.00
2018-09-27T21:28:08.842Z,10.70
2018-09-27T21:30:37.899Z,10.70
2018-09-27T21:33:07.126Z,10.60
2018-09-27T21:35:36.726Z,10.60
2018-09-27T21:38:06.838Z,10.80
2018-09-27T21:40:36.747Z,10.50
2018-09-27T21:43:06.436Z,10.40
2018-09-27T21:45:35.884Z,10.40
2018-09-27T21:48:05.183Z,10.30
2018-09-27T21:50:34.368Z,10.40
2018-09-27T21:53:03.551Z,10.60
2018-09-27T21:55:32.669Z,10.20
2018-09-27T21:58:01.938Z,10.30
2018-09-27T22:00:31.065Z,10.20
2018-09-27T22:03:00.218Z,10.30
2018-09-27T22:05:29.350Z,10.40
2018-09-27T22:07:58.541Z,10.30
2018-09-27T22:10:27.658Z,10.00
2018-09-27T22:12:56.773Z,10.30
2018-09-27T22:15:25.907Z,10.30
2018-09-27T22:17:55.034Z,10.10
2018-09-27T22:20:24.141Z,10.30
2018-09-27T22:22:53.267Z,10.20
2018-09-27T22:25:22.371Z,9.80
2018-09-27T22:27:51.509Z,9.50
2018-09-27T22:30:20.641Z,10.10
2018-09-27T22:32:49.779Z,10.20
2018-09-27T22:35:18.897Z,9.90
2018-09-27T22:37:48.069Z,10.10
2018-09-27T22:40:17.263Z,10.20
2018-09-27T22:42:46.414Z,10.20
2018-09-27T22:45:15.714Z,10.20
2018-09-27T22:47:45.227Z,9.90
2018-09-27T22:50:14.342Z,9.50
2018-09-27T22:52:43.501Z,9.70
2018-09-27T22:55:12.682Z,9.80
2018-09-27T22:57:41.955Z,9.80
2018-09-27T23:00:11.062Z,9.50
2018-09-27T23:02:40.203Z,9.30
2018-09-27T23:05:09.381Z,9.60
2018-09-27T23:07:38.553Z,9.70
2018-09-27T23:10:07.693Z,10.00
2018-09-27T23:12:36.861Z,10.00
2018-09-27T23:17:39.941Z,9.30
2018-09-27T23:20:10.201Z,9.60
2018-09-27T23:22:39.534Z,9.90
2018-09-27T23:25:09.015Z,9.90
2018-09-27T23:27:38.213Z,9.80
2018-09-27T23:30:07.394Z,9.80
2018-09-27T23:32:36.624Z,9.40
2018-09-27T23:35:06.252Z,9.20
2018-09-27T23:37:35.514Z,9.20
2018-09-27T23:40:04.744Z,9.30
2018-09-27T23:42:33.890Z,9.40
2018-09-27T23:45:03.366Z,9.60
2018-09-27T23:47:32.465Z,9.60
2018-09-27T23:50:01.590Z,9.70
2018-09-27T23:52:30.698Z,9.40
2018-09-27T23:54:59.857Z,9.50
2018-09-27T23:57:28.963Z,9.50
2018-09-27T23:59:58.103Z,9.40
